Ashland, Alabama
Current Conditions -  °F | °C
As of 7:03 AM on Saturday 20 Dec 2014 (Local Time) from KANB Reporting Station
Overcast Overcast  
Wind Chill:   Ceiling: 600
Heat Index:   Visibility: 9mi
Dew Point:   Wind: 3mph
Humidity: 89%   Direction: 60°ENE
Pressure: 30.2"   Gusts: NA
Location:  33.27°N, 85.84°W
Report Text: KANB 201303Z AUTO 06003KT 9SM BKN006 OVC023 06/04 A3020 RMK AO2 T00560039
Loading
Personal Weather Stations






























Interactive Weather Map New forecast layout! Learn more

10-Day Weather Forecast

Advertisements
Track Severe Weather on mobile